Terminal Aerodrome Forecast
Issued by NWS

Home | Current Version | Previous Version | Text Only | Print | Product List | Glossary On
Versions: 1 2 3 4 5 6 7 8 9 10 11 12 13 14 15 16 17 18 19 20 21 22 23 24 25 26
000
FTUS44 KOUN 132013 AAA
TAFPNC
TAF AMD
KPNC 132013Z 1320/1418 15010G14KT P6SM SCT250
     FM140600 12012KT P6SM SCT050
     FM140900 11010KT 4SM BR OVC015
     FM141300 06006KT 5SM BR OVC007=

USA.gov is the U.S. government's official web portal to all federal, state and local government web resources and services.